sensor_id;sensor_type;location;lat;lon;timestamp;temperature;humidity
9730;DHT22;4904;49.152;11.004;2022-12-18T00:02:03;-9.40;99.90
9730;DHT22;4904;49.152;11.004;2022-12-18T00:04:30;-9.20;99.90
9730;DHT22;4904;49.152;11.004;2022-12-18T00:06:57;-9.00;99.90
9730;DHT22;4904;49.152;11.004;2022-12-18T00:09:24;-8.90;99.90
9730;DHT22;4904;49.152;11.004;2022-12-18T00:11:52;-8.70;99.90
9730;DHT22;4904;49.152;11.004;2022-12-18T00:14:19;-8.70;99.90
9730;DHT22;4904;49.152;11.004;2022-12-18T00:16:46;-8.50;99.90
9730;DHT22;4904;49.152;11.004;2022-12-18T00:19:13;-8.50;99.90
9730;DHT22;4904;49.152;11.004;2022-12-18T00:21:41;-8.60;99.90
9730;DHT22;4904;49.152;11.004;2022-12-18T00:24:08;-8.50;99.90
9730;DHT22;4904;49.152;11.004;2022-12-18T00:26:37;-8.40;99.90
9730;DHT22;4904;49.152;11.004;2022-12-18T00:29:08;-8.30;99.90
9730;DHT22;4904;49.152;11.004;2022-12-18T00:31:37;-8.30;99.90
9730;DHT22;4904;49.152;11.004;2022-12-18T00:34:04;-8.20;99.90
9730;DHT22;4904;49.152;11.004;2022-12-18T00:36:32;-8.30;99.90
9730;DHT22;4904;49.152;11.004;2022-12-18T00:39:01;-8.20;99.90
9730;DHT22;4904;49.152;11.004;2022-12-18T00:41:29;-8.20;99.90
9730;DHT22;4904;49.152;11.004;2022-12-18T00:44:16;-8.20;99.90
9730;DHT22;4904;49.152;11.004;2022-12-18T00:46:44;-8.80;99.90
9730;DHT22;4904;49.152;11.004;2022-12-18T00:49:15;-9.20;99.90
9730;DHT22;4904;49.152;11.004;2022-12-18T00:51:42;-8.90;99.90
9730;DHT22;4904;49.152;11.004;2022-12-18T00:54:09;-8.80;99.90
9730;DHT22;4904;49.152;11.004;2022-12-18T00:56:36;-8.80;99.90
9730;DHT22;4904;49.152;11.004;2022-12-18T00:59:03;-8.80;99.90
9730;DHT22;4904;49.152;11.004;2022-12-18T01:01:32;-8.80;99.90
9730;DHT22;4904;49.152;11.004;2022-12-18T01:04:00;-9.10;99.90
9730;DHT22;4904;49.152;11.004;2022-12-18T01:06:27;-9.30;99.90
9730;DHT22;4904;49.152;11.004;2022-12-18T01:08:54;-9.20;99.90
9730;DHT22;4904;49.152;11.004;2022-12-18T01:11:21;-9.00;99.90
9730;DHT22;4904;49.152;11.004;2022-12-18T01:13:48;-8.70;99.90
9730;DHT22;4904;49.152;11.004;2022-12-18T01:16:17;-8.40;99.90
9730;DHT22;4904;49.152;11.004;2022-12-18T01:18:45;-8.20;99.90
9730;DHT22;4904;49.152;11.004;2022-12-18T01:21:14;-8.10;99.90
9730;DHT22;4904;49.152;11.004;2022-12-18T01:23:44;-8.00;99.90
9730;DHT22;4904;49.152;11.004;2022-12-18T01:26:13;-7.80;99.90
9730;DHT22;4904;49.152;11.004;2022-12-18T01:28:41;-7.70;99.90
9730;DHT22;4904;49.152;11.004;2022-12-18T01:31:10;-7.60;99.90
9730;DHT22;4904;49.152;11.004;2022-12-18T01:33:37;-7.50;99.90
9730;DHT22;4904;49.152;11.004;2022-12-18T01:36:06;-7.40;99.90
9730;DHT22;4904;49.152;11.004;2022-12-18T01:38:33;-7.30;99.90
9730;DHT22;4904;49.152;11.004;2022-12-18T01:41:00;-7.30;99.90
9730;DHT22;4904;49.152;11.004;2022-12-18T01:43:49;-7.20;99.90
9730;DHT22;4904;49.152;11.004;2022-12-18T01:46:18;-7.30;99.90
9730;DHT22;4904;49.152;11.004;2022-12-18T01:48:48;-7.30;99.90
9730;DHT22;4904;49.152;11.004;2022-12-18T01:51:17;-7.30;99.90
9730;DHT22;4904;49.152;11.004;2022-12-18T01:53:47;-7.30;99.90
9730;DHT22;4904;49.152;11.004;2022-12-18T01:56:16;-7.40;99.90
9730;DHT22;4904;49.152;11.004;2022-12-18T01:58:50;-7.60;99.90
9730;DHT22;4904;49.152;11.004;2022-12-18T02:01:21;-7.80;99.90
9730;DHT22;4904;49.152;11.004;2022-12-18T02:03:48;-7.80;99.90
9730;DHT22;4904;49.152;11.004;2022-12-18T02:06:18;-7.70;99.90
9730;DHT22;4904;49.152;11.004;2022-12-18T02:08:54;-7.60;99.90
9730;DHT22;4904;49.152;11.004;2022-12-18T02:11:33;-7.50;99.90
9730;DHT22;4904;49.152;11.004;2022-12-18T02:14:15;-7.30;99.90
9730;DHT22;4904;49.152;11.004;2022-12-18T02:16:47;-7.20;99.90
9730;DHT22;4904;49.152;11.004;2022-12-18T02:19:34;-7.00;99.90
9730;DHT22;4904;49.152;11.004;2022-12-18T02:22:16;-6.90;99.90
9730;DHT22;4904;49.152;11.004;2022-12-18T02:24:56;-6.90;99.90
9730;DHT22;4904;49.152;11.004;2022-12-18T02:27:27;-6.90;99.90
9730;DHT22;4904;49.152;11.004;2022-12-18T02:29:57;-6.80;99.90
9730;DHT22;4904;49.152;11.004;2022-12-18T02:32:28;-6.70;99.90
9730;DHT22;4904;49.152;11.004;2022-12-18T02:34:57;-6.70;99.90
9730;DHT22;4904;49.152;11.004;2022-12-18T02:37:26;-6.80;99.90
9730;DHT22;4904;49.152;11.004;2022-12-18T02:39:55;-7.00;99.90
9730;DHT22;4904;49.152;11.004;2022-12-18T02:42:25;-7.10;99.90
9730;DHT22;4904;49.152;11.004;2022-12-18T02:44:55;-7.10;99.90
9730;DHT22;4904;49.152;11.004;2022-12-18T02:47:24;-7.00;99.90
9730;DHT22;4904;49.152;11.004;2022-12-18T02:49:58;-6.90;99.90
9730;DHT22;4904;49.152;11.004;2022-12-18T02:52:31;-6.80;99.90
9730;DHT22;4904;49.152;11.004;2022-12-18T02:55:13;-6.90;99.90
9730;DHT22;4904;49.152;11.004;2022-12-18T02:57:48;-6.70;99.90
9730;DHT22;4904;49.152;11.004;2022-12-18T03:00:18;-6.60;99.90
9730;DHT22;4904;49.152;11.004;2022-12-18T03:02:51;-6.50;99.90
9730;DHT22;4904;49.152;11.004;2022-12-18T03:05:23;-6.50;99.90
9730;DHT22;4904;49.152;11.004;2022-12-18T03:07:57;-6.30;99.90
9730;DHT22;4904;49.152;11.004;2022-12-18T03:10:27;-6.30;99.90
9730;DHT22;4904;49.152;11.004;2022-12-18T03:13:00;-6.20;99.90
9730;DHT22;4904;49.152;11.004;2022-12-18T03:15:30;-6.10;99.90
9730;DHT22;4904;49.152;11.004;2022-12-18T03:18:02;-6.10;99.90
9730;DHT22;4904;49.152;11.004;2022-12-18T03:20:32;-6.00;99.90
9730;DHT22;4904;49.152;11.004;2022-12-18T03:23:06;-6.00;99.90
9730;DHT22;4904;49.152;11.004;2022-12-18T03:25:35;-6.00;99.90
9730;DHT22;4904;49.152;11.004;2022-12-18T03:28:07;-6.00;99.90
9730;DHT22;4904;49.152;11.004;2022-12-18T03:30:37;-6.00;99.90
9730;DHT22;4904;49.152;11.004;2022-12-18T03:33:08;-6.00;99.90
9730;DHT22;4904;49.152;11.004;2022-12-18T03:35:39;-6.30;99.90
9730;DHT22;4904;49.152;11.004;2022-12-18T03:38:08;-6.50;99.90
9730;DHT22;4904;49.152;11.004;2022-12-18T03:40:44;-6.50;99.90
9730;DHT22;4904;49.152;11.004;2022-12-18T03:43:19;-6.40;99.90
9730;DHT22;4904;49.152;11.004;2022-12-18T03:45:51;-6.20;99.90
9730;DHT22;4904;49.152;11.004;2022-12-18T03:48:23;-6.00;99.90
9730;DHT22;4904;49.152;11.004;2022-12-18T03:50:56;-5.90;99.90
9730;DHT22;4904;49.152;11.004;2022-12-18T03:53:31;-5.80;99.90
9730;DHT22;4904;49.152;11.004;2022-12-18T03:56:00;-5.70;99.90
9730;DHT22;4904;49.152;11.004;2022-12-18T03:58:31;-5.60;99.90
9730;DHT22;4904;49.152;11.004;2022-12-18T04:01:02;-5.60;99.90
9730;DHT22;4904;49.152;11.004;2022-12-18T04:03:31;-5.70;99.90
9730;DHT22;4904;49.152;11.004;2022-12-18T04:05:59;-5.70;99.90
9730;DHT22;4904;49.152;11.004;2022-12-18T04:08:28;-5.60;99.90
9730;DHT22;4904;49.152;11.004;2022-12-18T04:10:55;-5.60;99.90
9730;DHT22;4904;49.152;11.004;2022-12-18T04:13:22;-5.50;99.90
9730;DHT22;4904;49.152;11.004;2022-12-18T04:15:51;-5.40;99.90
9730;DHT22;4904;49.152;11.004;2022-12-18T04:18:17;-5.40;99.90
9730;DHT22;4904;49.152;11.004;2022-12-18T04:20:44;-5.30;99.90
9730;DHT22;4904;49.152;11.004;2022-12-18T04:23:11;-5.40;99.90
9730;DHT22;4904;49.152;11.004;2022-12-18T04:25:38;-5.40;99.90
9730;DHT22;4904;49.152;11.004;2022-12-18T04:28:05;-5.30;99.90
9730;DHT22;4904;49.152;11.004;2022-12-18T04:30:32;-5.30;99.90
9730;DHT22;4904;49.152;11.004;2022-12-18T04:33:00;-5.20;99.90
9730;DHT22;4904;49.152;11.004;2022-12-18T04:35:27;-5.20;99.90
9730;DHT22;4904;49.152;11.004;2022-12-18T04:37:54;-5.20;99.90
9730;DHT22;4904;49.152;11.004;2022-12-18T04:40:20;-5.10;99.90
9730;DHT22;4904;49.152;11.004;2022-12-18T04:42:47;-5.10;99.90
9730;DHT22;4904;49.152;11.004;2022-12-18T04:45:14;-5.10;99.90
9730;DHT22;4904;49.152;11.004;2022-12-18T04:47:41;-4.90;99.90
9730;DHT22;4904;49.152;11.004;2022-12-18T04:50:09;-4.90;99.90
9730;DHT22;4904;49.152;11.004;2022-12-18T04:52:36;-4.90;99.90
9730;DHT22;4904;49.152;11.004;2022-12-18T04:55:03;-4.80;99.90
9730;DHT22;4904;49.152;11.004;2022-12-18T04:57:30;-4.80;99.90
9730;DHT22;4904;49.152;11.004;2022-12-18T04:59:57;-4.70;99.90
9730;DHT22;4904;49.152;11.004;2022-12-18T05:02:24;-4.70;99.90
9730;DHT22;4904;49.152;11.004;2022-12-18T05:04:51;-4.70;99.90
9730;DHT22;4904;49.152;11.004;2022-12-18T05:07:19;-4.70;99.90
9730;DHT22;4904;49.152;11.004;2022-12-18T05:09:46;-4.80;99.90
9730;DHT22;4904;49.152;11.004;2022-12-18T05:12:13;-4.80;99.90
9730;DHT22;4904;49.152;11.004;2022-12-18T05:14:39;-4.80;99.90
9730;DHT22;4904;49.152;11.004;2022-12-18T05:17:06;-4.90;99.90
9730;DHT22;4904;49.152;11.004;2022-12-18T05:19:33;-4.90;99.90
9730;DHT22;4904;49.152;11.004;2022-12-18T05:22:00;-4.90;99.90
9730;DHT22;4904;49.152;11.004;2022-12-18T05:24:29;-4.80;99.90
9730;DHT22;4904;49.152;11.004;2022-12-18T05:26:56;-4.70;99.90
9730;DHT22;4904;49.152;11.004;2022-12-18T05:29:23;-4.70;99.90
9730;DHT22;4904;49.152;11.004;2022-12-18T05:31:49;-4.70;99.90
9730;DHT22;4904;49.152;11.004;2022-12-18T05:34:16;-4.70;99.90
9730;DHT22;4904;49.152;11.004;2022-12-18T05:36:43;-4.60;99.90
9730;DHT22;4904;49.152;11.004;2022-12-18T05:39:10;-4.60;99.90
9730;DHT22;4904;49.152;11.004;2022-12-18T05:41:38;-4.80;99.90
9730;DHT22;4904;49.152;11.004;2022-12-18T05:44:05;-4.70;99.90
9730;DHT22;4904;49.152;11.004;2022-12-18T05:46:32;-4.70;99.90
9730;DHT22;4904;49.152;11.004;2022-12-18T05:48:59;-4.80;99.90
9730;DHT22;4904;49.152;11.004;2022-12-18T05:51:27;-4.70;99.90
9730;DHT22;4904;49.152;11.004;2022-12-18T05:53:54;-4.70;99.90
9730;DHT22;4904;49.152;11.004;2022-12-18T05:56:22;-4.60;99.90
9730;DHT22;4904;49.152;11.004;2022-12-18T05:58:53;-4.60;99.90
9730;DHT22;4904;49.152;11.004;2022-12-18T06:01:22;-4.50;99.90
9730;DHT22;4904;49.152;11.004;2022-12-18T06:03:49;-4.40;99.90
9730;DHT22;4904;49.152;11.004;2022-12-18T06:06:18;-4.50;99.90
9730;DHT22;4904;49.152;11.004;2022-12-18T06:08:47;-4.40;99.90
9730;DHT22;4904;49.152;11.004;2022-12-18T06:11:17;-4.30;99.90
9730;DHT22;4904;49.152;11.004;2022-12-18T06:13:44;-4.40;99.90
9730;DHT22;4904;49.152;11.004;2022-12-18T06:16:12;-4.30;99.90
9730;DHT22;4904;49.152;11.004;2022-12-18T06:18:39;-4.40;99.90
9730;DHT22;4904;49.152;11.004;2022-12-18T06:21:06;-4.40;99.90
9730;DHT22;4904;49.152;11.004;2022-12-18T06:23:33;-4.20;99.90
9730;DHT22;4904;49.152;11.004;2022-12-18T06:26:04;-4.20;99.90
9730;DHT22;4904;49.152;11.004;2022-12-18T06:28:31;-4.40;99.90
9730;DHT22;4904;49.152;11.004;2022-12-18T06:30:58;-4.20;99.90
9730;DHT22;4904;49.152;11.004;2022-12-18T06:33:27;-4.10;99.90
9730;DHT22;4904;49.152;11.004;2022-12-18T06:35:54;-4.10;99.90
9730;DHT22;4904;49.152;11.004;2022-12-18T06:38:26;-4.00;99.90
9730;DHT22;4904;49.152;11.004;2022-12-18T06:40:52;-4.10;99.90
9730;DHT22;4904;49.152;11.004;2022-12-18T06:43:19;-4.00;99.90
9730;DHT22;4904;49.152;11.004;2022-12-18T06:45:46;-4.00;99.90
9730;DHT22;4904;49.152;11.004;2022-12-18T06:48:18;-4.00;99.90
9730;DHT22;4904;49.152;11.004;2022-12-18T06:50:46;-4.10;99.90
9730;DHT22;4904;49.152;11.004;2022-12-18T06:53:13;-4.00;99.90
9730;DHT22;4904;49.152;11.004;2022-12-18T06:55:40;-3.90;99.90
9730;DHT22;4904;49.152;11.004;2022-12-18T06:58:07;-3.80;99.90
9730;DHT22;4904;49.152;11.004;2022-12-18T07:00:34;-3.90;99.90
9730;DHT22;4904;49.152;11.004;2022-12-18T07:03:00;-3.80;99.90
9730;DHT22;4904;49.152;11.004;2022-12-18T07:05:27;-3.80;99.90
9730;DHT22;4904;49.152;11.004;2022-12-18T07:07:56;-3.90;99.90
9730;DHT22;4904;49.152;11.004;2022-12-18T07:10:22;-4.00;99.90
9730;DHT22;4904;49.152;11.004;2022-12-18T07:12:49;-3.90;99.90
9730;DHT22;4904;49.152;11.004;2022-12-18T07:15:16;-3.80;99.90
9730;DHT22;4904;49.152;11.004;2022-12-18T07:17:43;-3.90;99.90
9730;DHT22;4904;49.152;11.004;2022-12-18T07:20:10;-3.80;99.90
9730;DHT22;4904;49.152;11.004;2022-12-18T07:22:37;-3.80;99.90
9730;DHT22;4904;49.152;11.004;2022-12-18T07:25:07;-3.80;99.90
9730;DHT22;4904;49.152;11.004;2022-12-18T07:27:34;-3.80;99.90
9730;DHT22;4904;49.152;11.004;2022-12-18T07:30:01;-3.90;99.90
9730;DHT22;4904;49.152;11.004;2022-12-18T07:32:27;-3.80;99.90
9730;DHT22;4904;49.152;11.004;2022-12-18T07:34:54;-3.80;99.90
9730;DHT22;4904;49.152;11.004;2022-12-18T07:37:21;-3.80;99.90
9730;DHT22;4904;49.152;11.004;2022-12-18T07:39:48;-3.70;99.90
9730;DHT22;4904;49.152;11.004;2022-12-18T07:42:16;-3.70;99.90
9730;DHT22;4904;49.152;11.004;2022-12-18T07:44:58;-3.80;99.90
9730;DHT22;4904;49.152;11.004;2022-12-18T07:47:26;-3.70;99.90
9730;DHT22;4904;49.152;11.004;2022-12-18T07:49:53;-3.60;99.90
9730;DHT22;4904;49.152;11.004;2022-12-18T07:52:20;-3.70;99.90
9730;DHT22;4904;49.152;11.004;2022-12-18T07:54:47;-3.80;99.90
9730;DHT22;4904;49.152;11.004;2022-12-18T07:57:16;-3.70;99.90
9730;DHT22;4904;49.152;11.004;2022-12-18T07:59:43;-3.60;99.90
9730;DHT22;4904;49.152;11.004;2022-12-18T08:02:10;-3.60;99.90
9730;DHT22;4904;49.152;11.004;2022-12-18T08:04:37;-3.50;99.90
9730;DHT22;4904;49.152;11.004;2022-12-18T08:07:03;-3.40;99.90
9730;DHT22;4904;49.152;11.004;2022-12-18T08:09:30;-3.30;99.90
9730;DHT22;4904;49.152;11.004;2022-12-18T08:11:57;-3.30;99.90
9730;DHT22;4904;49.152;11.004;2022-12-18T08:14:25;-3.30;99.90
9730;DHT22;4904;49.152;11.004;2022-12-18T08:16:52;-3.30;99.90
9730;DHT22;4904;49.152;11.004;2022-12-18T08:19:19;-3.30;99.90
9730;DHT22;4904;49.152;11.004;2022-12-18T08:21:46;-3.20;99.90
9730;DHT22;4904;49.152;11.004;2022-12-18T08:24:12;-3.10;99.90
9730;DHT22;4904;49.152;11.004;2022-12-18T08:26:39;-3.00;99.90
9730;DHT22;4904;49.152;11.004;2022-12-18T08:29:06;-3.00;99.90
9730;DHT22;4904;49.152;11.004;2022-12-18T08:31:34;-3.00;99.90
9730;DHT22;4904;49.152;11.004;2022-12-18T08:34:01;-3.00;99.90
9730;DHT22;4904;49.152;11.004;2022-12-18T08:36:28;-2.90;99.90
9730;DHT22;4904;49.152;11.004;2022-12-18T08:38:56;-2.90;99.90
9730;DHT22;4904;49.152;11.004;2022-12-18T08:41:23;-3.00;99.90
9730;DHT22;4904;49.152;11.004;2022-12-18T08:43:50;-3.00;99.90
9730;DHT22;4904;49.152;11.004;2022-12-18T08:46:37;-3.10;99.90
9730;DHT22;4904;49.152;11.004;2022-12-18T08:49:05;-3.00;99.90
9730;DHT22;4904;49.152;11.004;2022-12-18T08:51:32;-3.00;99.90
9730;DHT22;4904;49.152;11.004;2022-12-18T08:53:59;-3.00;99.90
9730;DHT22;4904;49.152;11.004;2022-12-18T08:56:26;-3.00;99.90
9730;DHT22;4904;49.152;11.004;2022-12-18T08:58:53;-2.90;99.90
9730;DHT22;4904;49.152;11.004;2022-12-18T09:01:21;-2.90;99.90
9730;DHT22;4904;49.152;11.004;2022-12-18T09:03:50;-2.90;99.90
9730;DHT22;4904;49.152;11.004;2022-12-18T09:06:20;-2.80;99.90
9730;DHT22;4904;49.152;11.004;2022-12-18T09:08:48;-2.80;99.90
9730;DHT22;4904;49.152;11.004;2022-12-18T09:11:19;-2.70;99.90
9730;DHT22;4904;49.152;11.004;2022-12-18T09:13:46;-2.70;99.90
9730;DHT22;4904;49.152;11.004;2022-12-18T09:16:13;-2.70;99.90
9730;DHT22;4904;49.152;11.004;2022-12-18T09:18:40;-2.70;99.90
9730;DHT22;4904;49.152;11.004;2022-12-18T09:21:13;-2.60;99.90
9730;DHT22;4904;49.152;11.004;2022-12-18T09:23:41;-2.50;99.90
9730;DHT22;4904;49.152;11.004;2022-12-18T09:26:08;-2.40;99.90
9730;DHT22;4904;49.152;11.004;2022-12-18T09:28:35;-2.30;99.90
9730;DHT22;4904;49.152;11.004;2022-12-18T09:31:04;-2.40;99.90
9730;DHT22;4904;49.152;11.004;2022-12-18T09:33:32;-2.60;99.90
9730;DHT22;4904;49.152;11.004;2022-12-18T09:36:01;-2.70;99.90
9730;DHT22;4904;49.152;11.004;2022-12-18T09:38:29;-2.80;99.90
9730;DHT22;4904;49.152;11.004;2022-12-18T09:40:59;-2.70;99.90
9730;DHT22;4904;49.152;11.004;2022-12-18T09:43:30;-2.70;99.90
9730;DHT22;4904;49.152;11.004;2022-12-18T09:46:04;-2.60;99.90
9730;DHT22;4904;49.152;11.004;2022-12-18T09:48:36;-2.60;99.90
9730;DHT22;4904;49.152;11.004;2022-12-18T09:51:11;-2.50;99.90
9730;DHT22;4904;49.152;11.004;2022-12-18T09:53:41;-2.40;99.90
9730;DHT22;4904;49.152;11.004;2022-12-18T09:56:15;-2.50;99.90
9730;DHT22;4904;49.152;11.004;2022-12-18T09:58:47;-2.50;99.90
9730;DHT22;4904;49.152;11.004;2022-12-18T10:01:20;-2.50;99.90
9730;DHT22;4904;49.152;11.004;2022-12-18T10:03:48;-2.40;99.90
9730;DHT22;4904;49.152;11.004;2022-12-18T10:06:20;-2.30;99.90
9730;DHT22;4904;49.152;11.004;2022-12-18T10:08:56;-2.30;99.90
9730;DHT22;4904;49.152;11.004;2022-12-18T10:11:32;-2.20;99.90
9730;DHT22;4904;49.152;11.004;2022-12-18T10:14:09;-2.00;99.90
9730;DHT22;4904;49.152;11.004;2022-12-18T10:16:44;-1.90;99.90
9730;DHT22;4904;49.152;11.004;2022-12-18T10:19:24;-2.00;99.90
9730;DHT22;4904;49.152;11.004;2022-12-18T10:21:59;-2.00;99.90
9730;DHT22;4904;49.152;11.004;2022-12-18T10:24:37;-2.00;99.90
9730;DHT22;4904;49.152;11.004;2022-12-18T10:27:13;-2.10;99.90
9730;DHT22;4904;49.152;11.004;2022-12-18T10:29:41;-2.20;99.90
9730;DHT22;4904;49.152;11.004;2022-12-18T10:32:14;-2.10;99.90
9730;DHT22;4904;49.152;11.004;2022-12-18T10:34:44;-2.00;99.90
9730;DHT22;4904;49.152;11.004;2022-12-18T10:37:15;-2.10;99.90
9730;DHT22;4904;49.152;11.004;2022-12-18T10:39:45;-2.10;99.90
9730;DHT22;4904;49.152;11.004;2022-12-18T10:42:17;-2.10;99.90
9730;DHT22;4904;49.152;11.004;2022-12-18T10:44:44;-2.00;99.90
9730;DHT22;4904;49.152;11.004;2022-12-18T10:47:14;-2.00;99.90
9730;DHT22;4904;49.152;11.004;2022-12-18T10:49:47;-2.00;99.90
9730;DHT22;4904;49.152;11.004;2022-12-18T10:52:17;-1.90;99.90
9730;DHT22;4904;49.152;11.004;2022-12-18T10:54:51;-1.90;99.90
9730;DHT22;4904;49.152;11.004;2022-12-18T10:57:32;-1.80;99.90
9730;DHT22;4904;49.152;11.004;2022-12-18T11:00:03;-1.70;99.90
9730;DHT22;4904;49.152;11.004;2022-12-18T11:02:40;-1.60;99.90
9730;DHT22;4904;49.152;11.004;2022-12-18T11:05:23;-1.50;99.90
9730;DHT22;4904;49.152;11.004;2022-12-18T11:07:51;-1.50;99.90
9730;DHT22;4904;49.152;11.004;2022-12-18T11:10:22;-1.40;99.90
9730;DHT22;4904;49.152;11.004;2022-12-18T11:12:50;-1.40;99.90
9730;DHT22;4904;49.152;11.004;2022-12-18T11:15:20;-1.40;99.90
9730;DHT22;4904;49.152;11.004;2022-12-18T11:17:48;-1.40;99.90
9730;DHT22;4904;49.152;11.004;2022-12-18T11:20:23;-1.50;99.90
9730;DHT22;4904;49.152;11.004;2022-12-18T11:22:57;-1.50;99.90
9730;DHT22;4904;49.152;11.004;2022-12-18T11:25:29;-1.70;99.90
9730;DHT22;4904;49.152;11.004;2022-12-18T11:27:57;-1.90;99.90
9730;DHT22;4904;49.152;11.004;2022-12-18T11:30:27;-1.90;99.90
9730;DHT22;4904;49.152;11.004;2022-12-18T11:32:58;-1.90;99.90
9730;DHT22;4904;49.152;11.004;2022-12-18T11:35:37;-1.90;99.90
9730;DHT22;4904;49.152;11.004;2022-12-18T11:38:12;-1.90;99.90
9730;DHT22;4904;49.152;11.004;2022-12-18T11:40:47;-2.10;99.90
9730;DHT22;4904;49.152;11.004;2022-12-18T11:43:20;-2.10;99.90
9730;DHT22;4904;49.152;11.004;2022-12-18T11:45:53;-2.00;99.90
9730;DHT22;4904;49.152;11.004;2022-12-18T11:48:24;-1.90;99.90
9730;DHT22;4904;49.152;11.004;2022-12-18T11:50:54;-1.80;99.90
9730;DHT22;4904;49.152;11.004;2022-12-18T11:53:22;-1.80;99.90
9730;DHT22;4904;49.152;11.004;2022-12-18T11:56:03;-1.70;99.90
9730;DHT22;4904;49.152;11.004;2022-12-18T11:58:43;-1.80;99.90
9730;DHT22;4904;49.152;11.004;2022-12-18T12:01:18;-1.80;99.90
9730;DHT22;4904;49.152;11.004;2022-12-18T12:04:06;-1.70;99.90
9730;DHT22;4904;49.152;11.004;2022-12-18T12:06:45;-1.60;99.90
9730;DHT22;4904;49.152;11.004;2022-12-18T12:09:20;-1.70;99.90
9730;DHT22;4904;49.152;11.004;2022-12-18T12:12:01;-1.80;99.90
9730;DHT22;4904;49.152;11.004;2022-12-18T12:14:46;-1.80;99.90
9730;DHT22;4904;49.152;11.004;2022-12-18T12:17:25;-1.80;99.90
9730;DHT22;4904;49.152;11.004;2022-12-18T12:20:00;-1.70;99.90
9730;DHT22;4904;49.152;11.004;2022-12-18T12:22:35;-1.70;99.90
9730;DHT22;4904;49.152;11.004;2022-12-18T12:25:15;-1.80;99.90
9730;DHT22;4904;49.152;11.004;2022-12-18T12:27:53;-1.90;99.90
9730;DHT22;4904;49.152;11.004;2022-12-18T12:30:32;-1.90;99.90
9730;DHT22;4904;49.152;11.004;2022-12-18T12:33:13;-1.80;99.90
9730;DHT22;4904;49.152;11.004;2022-12-18T12:35:49;-1.80;99.90
9730;DHT22;4904;49.152;11.004;2022-12-18T12:38:22;-1.80;99.90
9730;DHT22;4904;49.152;11.004;2022-12-18T12:40:54;-1.90;99.90
9730;DHT22;4904;49.152;11.004;2022-12-18T12:43:29;-1.90;99.90
9730;DHT22;4904;49.152;11.004;2022-12-18T12:46:05;-1.70;99.90
9730;DHT22;4904;49.152;11.004;2022-12-18T12:48:40;-1.50;99.90
9730;DHT22;4904;49.152;11.004;2022-12-18T12:51:12;-1.30;99.90
9730;DHT22;4904;49.152;11.004;2022-12-18T12:53:40;-1.30;99.90
9730;DHT22;4904;49.152;11.004;2022-12-18T12:56:10;-1.20;99.90
9730;DHT22;4904;49.152;11.004;2022-12-18T12:58:45;-1.10;99.90
9730;DHT22;4904;49.152;11.004;2022-12-18T13:01:20;-1.10;99.90
9730;DHT22;4904;49.152;11.004;2022-12-18T13:03:56;-1.10;99.90
9730;DHT22;4904;49.152;11.004;2022-12-18T13:06:32;-1.10;99.90
9730;DHT22;4904;49.152;11.004;2022-12-18T13:09:00;-1.10;99.90
9730;DHT22;4904;49.152;11.004;2022-12-18T13:11:35;-1.20;99.90
9730;DHT22;4904;49.152;11.004;2022-12-18T13:14:24;-1.20;99.90
9730;DHT22;4904;49.152;11.004;2022-12-18T13:20:11;-1.20;99.90
9730;DHT22;4904;49.152;11.004;2022-12-18T13:22:42;-1.10;99.90
9730;DHT22;4904;49.152;11.004;2022-12-18T13:25:31;-1.10;99.90
9730;DHT22;4904;49.152;11.004;2022-12-18T13:28:05;-1.10;99.90
9730;DHT22;4904;49.152;11.004;2022-12-18T13:30:47;-1.20;99.90
9730;DHT22;4904;49.152;11.004;2022-12-18T13:33:46;-1.40;99.90
9730;DHT22;4904;49.152;11.004;2022-12-18T13:36:25;-1.40;99.90
9730;DHT22;4904;49.152;11.004;2022-12-18T13:39:20;-1.30;99.90
9730;DHT22;4904;49.152;11.004;2022-12-18T13:41:49;-1.30;99.90
9730;DHT22;4904;49.152;11.004;2022-12-18T13:44:25;-1.30;99.90
9730;DHT22;4904;49.152;11.004;2022-12-18T13:46:56;-1.30;99.90
9730;DHT22;4904;49.152;11.004;2022-12-18T13:49:25;-1.30;99.90
9730;DHT22;4904;49.152;11.004;2022-12-18T13:51:54;-1.30;99.90
9730;DHT22;4904;49.152;11.004;2022-12-18T13:54:27;-1.30;99.90
9730;DHT22;4904;49.152;11.004;2022-12-18T13:56:55;-1.40;99.90
9730;DHT22;4904;49.152;11.004;2022-12-18T13:59:23;-1.50;99.90
9730;DHT22;4904;49.152;11.004;2022-12-18T14:01:53;-1.50;99.90
9730;DHT22;4904;49.152;11.004;2022-12-18T14:04:27;-1.60;99.90
9730;DHT22;4904;49.152;11.004;2022-12-18T14:06:57;-1.70;99.90
9730;DHT22;4904;49.152;11.004;2022-12-18T14:09:27;-1.70;99.90
9730;DHT22;4904;49.152;11.004;2022-12-18T14:11:56;-1.80;99.90
9730;DHT22;4904;49.152;11.004;2022-12-18T14:14:41;-1.70;99.90
9730;DHT22;4904;49.152;11.004;2022-12-18T14:17:09;-1.60;99.90
9730;DHT22;4904;49.152;11.004;2022-12-18T14:19:41;-1.70;99.90
9730;DHT22;4904;49.152;11.004;2022-12-18T14:22:14;-1.80;99.90
9730;DHT22;4904;49.152;11.004;2022-12-18T14:24:41;-2.10;99.90
9730;DHT22;4904;49.152;11.004;2022-12-18T14:27:19;-2.00;99.90
9730;DHT22;4904;49.152;11.004;2022-12-18T14:29:47;-2.00;99.90
9730;DHT22;4904;49.152;11.004;2022-12-18T14:32:16;-1.90;99.90
9730;DHT22;4904;49.152;11.004;2022-12-18T14:34:45;-2.10;99.90
9730;DHT22;4904;49.152;11.004;2022-12-18T14:37:14;-2.10;99.90
9730;DHT22;4904;49.152;11.004;2022-12-18T14:39:52;-2.10;99.90
9730;DHT22;4904;49.152;11.004;2022-12-18T14:42:19;-2.00;99.90
9730;DHT22;4904;49.152;11.004;2022-12-18T14:44:46;-2.10;99.90
9730;DHT22;4904;49.152;11.004;2022-12-18T14:47:14;-2.10;99.90
9730;DHT22;4904;49.152;11.004;2022-12-18T14:49:41;-2.10;99.90
9730;DHT22;4904;49.152;11.004;2022-12-18T14:52:20;-2.00;99.90
9730;DHT22;4904;49.152;11.004;2022-12-18T14:54:49;-2.10;99.90
9730;DHT22;4904;49.152;11.004;2022-12-18T14:57:22;-2.10;99.90
9730;DHT22;4904;49.152;11.004;2022-12-18T14:59:49;-2.10;99.90
9730;DHT22;4904;49.152;11.004;2022-12-18T15:02:21;-2.10;99.90
9730;DHT22;4904;49.152;11.004;2022-12-18T15:04:48;-2.10;99.90
9730;DHT22;4904;49.152;11.004;2022-12-18T15:07:38;-2.10;99.90
9730;DHT22;4904;49.152;11.004;2022-12-18T15:10:11;-2.00;99.90
9730;DHT22;4904;49.152;11.004;2022-12-18T15:12:40;-2.00;99.90
9730;DHT22;4904;49.152;11.004;2022-12-18T15:18:13;-2.00;99.90
9730;DHT22;4904;49.152;11.004;2022-12-18T15:20:43;-2.00;99.90
9730;DHT22;4904;49.152;11.004;2022-12-18T15:23:16;-2.10;99.90
9730;DHT22;4904;49.152;11.004;2022-12-18T15:25:43;-2.10;99.90
9730;DHT22;4904;49.152;11.004;2022-12-18T15:28:19;-2.10;99.90
9730;DHT22;4904;49.152;11.004;2022-12-18T15:31:22;-2.20;99.90
9730;DHT22;4904;49.152;11.004;2022-12-18T15:34:11;-2.20;99.90
9730;DHT22;4904;49.152;11.004;2022-12-18T15:36:38;-2.20;99.90
9730;DHT22;4904;49.152;11.004;2022-12-18T15:39:10;-2.20;99.90
9730;DHT22;4904;49.152;11.004;2022-12-18T15:41:37;-2.30;99.90
9730;DHT22;4904;49.152;11.004;2022-12-18T15:44:21;-2.30;99.90
9730;DHT22;4904;49.152;11.004;2022-12-18T15:46:47;-2.40;99.90
9730;DHT22;4904;49.152;11.004;2022-12-18T15:49:14;-2.40;99.90
9730;DHT22;4904;49.152;11.004;2022-12-18T15:51:41;-2.40;99.90
9730;DHT22;4904;49.152;11.004;2022-12-18T15:54:13;-2.40;99.90
9730;DHT22;4904;49.152;11.004;2022-12-18T15:56:42;-2.40;99.90
9730;DHT22;4904;49.152;11.004;2022-12-18T15:59:26;-2.50;99.90
9730;DHT22;4904;49.152;11.004;2022-12-18T16:01:53;-2.60;99.90
9730;DHT22;4904;49.152;11.004;2022-12-18T16:04:21;-2.60;99.90
9730;DHT22;4904;49.152;11.004;2022-12-18T16:06:50;-2.70;99.90
9730;DHT22;4904;49.152;11.004;2022-12-18T16:09:19;-2.70;99.90
9730;DHT22;4904;49.152;11.004;2022-12-18T16:11:46;-2.80;99.90
9730;DHT22;4904;49.152;11.004;2022-12-18T16:14:17;-2.70;99.90